sensor_id;sensor_type;location;lat;lon;timestamp;P1;durP1;ratioP1;P2;durP2;ratioP2
23898;SDS011;20544;50.018;20.010;2023-04-06T00:02:20;18.18;;;10.93;;
23898;SDS011;20544;50.018;20.010;2023-04-06T00:05:36;19.80;;;12.18;;
23898;SDS011;20544;50.018;20.010;2023-04-06T00:08:53;17.38;;;11.65;;
23898;SDS011;20544;50.018;20.010;2023-04-06T00:12:10;17.18;;;11.85;;
23898;SDS011;20544;50.018;20.010;2023-04-06T00:15:26;18.88;;;11.55;;
23898;SDS011;20544;50.018;20.010;2023-04-06T00:18:42;20.15;;;11.45;;
23898;SDS011;20544;50.018;20.010;2023-04-06T00:21:59;17.50;;;11.90;;
23898;SDS011;20544;50.018;20.010;2023-04-06T00:25:16;19.33;;;12.23;;
23898;SDS011;20544;50.018;20.010;2023-04-06T00:28:32;20.75;;;12.68;;
23898;SDS011;20544;50.018;20.010;2023-04-06T00:31:49;21.18;;;12.35;;
23898;SDS011;20544;50.018;20.010;2023-04-06T00:35:06;21.08;;;13.30;;
23898;SDS011;20544;50.018;20.010;2023-04-06T00:38:23;21.68;;;12.90;;
23898;SDS011;20544;50.018;20.010;2023-04-06T00:41:40;22.25;;;13.73;;
23898;SDS011;20544;50.018;20.010;2023-04-06T00:45:02;21.77;;;14.30;;
23898;SDS011;20544;50.018;20.010;2023-04-06T00:48:20;25.50;;;15.23;;
23898;SDS011;20544;50.018;20.010;2023-04-06T00:51:38;26.68;;;16.98;;
23898;SDS011;20544;50.018;20.010;2023-04-06T00:54:54;22.38;;;13.90;;
23898;SDS011;20544;50.018;20.010;2023-04-06T00:58:12;20.48;;;13.18;;
23898;SDS011;20544;50.018;20.010;2023-04-06T01:01:30;22.88;;;12.48;;
23898;SDS011;20544;50.018;20.010;2023-04-06T01:04:48;23.98;;;14.33;;
23898;SDS011;20544;50.018;20.010;2023-04-06T01:08:07;20.43;;;12.88;;
23898;SDS011;20544;50.018;20.010;2023-04-06T01:11:24;20.95;;;13.95;;
23898;SDS011;20544;50.018;20.010;2023-04-06T01:14:42;20.63;;;13.63;;
23898;SDS011;20544;50.018;20.010;2023-04-06T01:24:06;24.28;;;14.18;;
23898;SDS011;20544;50.018;20.010;2023-04-06T01:27:31;20.60;;;14.35;;
23898;SDS011;20544;50.018;20.010;2023-04-06T01:34:06;25.68;;;14.53;;
23898;SDS011;20544;50.018;20.010;2023-04-06T01:37:24;21.50;;;13.68;;
23898;SDS011;20544;50.018;20.010;2023-04-06T01:40:42;26.70;;;15.45;;
23898;SDS011;20544;50.018;20.010;2023-04-06T01:44:01;24.10;;;15.33;;
23898;SDS011;20544;50.018;20.010;2023-04-06T01:47:18;23.95;;;14.85;;
23898;SDS011;20544;50.018;20.010;2023-04-06T01:50:35;27.13;;;15.98;;
23898;SDS011;20544;50.018;20.010;2023-04-06T01:53:54;26.53;;;16.40;;
23898;SDS011;20544;50.018;20.010;2023-04-06T01:57:28;24.73;;;14.78;;
23898;SDS011;20544;50.018;20.010;2023-04-06T02:00:46;26.90;;;15.70;;
23898;SDS011;20544;50.018;20.010;2023-04-06T02:04:03;24.08;;;14.90;;
23898;SDS011;20544;50.018;20.010;2023-04-06T02:07:21;24.83;;;15.50;;
23898;SDS011;20544;50.018;20.010;2023-04-06T02:10:38;23.83;;;14.60;;
23898;SDS011;20544;50.018;20.010;2023-04-06T02:13:56;22.10;;;14.75;;
23898;SDS011;20544;50.018;20.010;2023-04-06T02:17:15;22.40;;;14.13;;
23898;SDS011;20544;50.018;20.010;2023-04-06T02:20:31;21.53;;;14.40;;
23898;SDS011;20544;50.018;20.010;2023-04-06T02:23:48;20.33;;;13.65;;
23898;SDS011;20544;50.018;20.010;2023-04-06T02:27:04;22.63;;;14.33;;
23898;SDS011;20544;50.018;20.010;2023-04-06T02:30:23;22.55;;;14.40;;
23898;SDS011;20544;50.018;20.010;2023-04-06T02:33:39;22.55;;;14.28;;
23898;SDS011;20544;50.018;20.010;2023-04-06T02:36:56;20.33;;;14.15;;
23898;SDS011;20544;50.018;20.010;2023-04-06T02:40:15;23.00;;;15.15;;
23898;SDS011;20544;50.018;20.010;2023-04-06T02:43:32;25.53;;;14.90;;
23898;SDS011;20544;50.018;20.010;2023-04-06T02:46:53;22.68;;;13.65;;
23898;SDS011;20544;50.018;20.010;2023-04-06T02:50:10;27.70;;;15.18;;
23898;SDS011;20544;50.018;20.010;2023-04-06T02:53:31;26.25;;;14.98;;
23898;SDS011;20544;50.018;20.010;2023-04-06T02:56:49;25.05;;;15.25;;
23898;SDS011;20544;50.018;20.010;2023-04-06T03:00:09;23.33;;;14.15;;
23898;SDS011;20544;50.018;20.010;2023-04-06T03:06:31;23.93;;;14.40;;
23898;SDS011;20544;50.018;20.010;2023-04-06T03:09:49;19.95;;;14.43;;
23898;SDS011;20544;50.018;20.010;2023-04-06T03:13:07;25.03;;;14.95;;
23898;SDS011;20544;50.018;20.010;2023-04-06T03:16:31;34.78;;;17.80;;
23898;SDS011;20544;50.018;20.010;2023-04-06T03:22:52;27.00;;;15.28;;
23898;SDS011;20544;50.018;20.010;2023-04-06T03:26:10;29.98;;;15.83;;
23898;SDS011;20544;50.018;20.010;2023-04-06T03:29:29;24.43;;;15.10;;
23898;SDS011;20544;50.018;20.010;2023-04-06T03:32:47;30.98;;;15.85;;
23898;SDS011;20544;50.018;20.010;2023-04-06T03:36:05;31.38;;;16.08;;
23898;SDS011;20544;50.018;20.010;2023-04-06T03:39:22;31.98;;;16.73;;
23898;SDS011;20544;50.018;20.010;2023-04-06T03:42:39;32.80;;;16.35;;
23898;SDS011;20544;50.018;20.010;2023-04-06T03:45:56;26.05;;;15.98;;
23898;SDS011;20544;50.018;20.010;2023-04-06T03:49:13;30.33;;;16.20;;
23898;SDS011;20544;50.018;20.010;2023-04-06T03:52:30;27.08;;;16.05;;
23898;SDS011;20544;50.018;20.010;2023-04-06T03:55:46;29.58;;;16.53;;
23898;SDS011;20544;50.018;20.010;2023-04-06T03:59:03;29.30;;;16.90;;
23898;SDS011;20544;50.018;20.010;2023-04-06T04:02:19;24.95;;;15.43;;
23898;SDS011;20544;50.018;20.010;2023-04-06T04:05:36;25.30;;;15.35;;
23898;SDS011;20544;50.018;20.010;2023-04-06T04:08:53;23.68;;;15.88;;
23898;SDS011;20544;50.018;20.010;2023-04-06T04:12:09;27.98;;;16.68;;
23898;SDS011;20544;50.018;20.010;2023-04-06T04:15:26;24.78;;;14.38;;
23898;SDS011;20544;50.018;20.010;2023-04-06T04:18:42;24.63;;;14.83;;
23898;SDS011;20544;50.018;20.010;2023-04-06T04:22:00;25.98;;;16.10;;
23898;SDS011;20544;50.018;20.010;2023-04-06T04:25:17;25.73;;;16.28;;
23898;SDS011;20544;50.018;20.010;2023-04-06T04:28:34;24.28;;;14.83;;
23898;SDS011;20544;50.018;20.010;2023-04-06T04:31:52;25.55;;;15.88;;
23898;SDS011;20544;50.018;20.010;2023-04-06T04:35:11;24.98;;;16.68;;
23898;SDS011;20544;50.018;20.010;2023-04-06T04:38:28;23.18;;;15.75;;
23898;SDS011;20544;50.018;20.010;2023-04-06T04:41:44;25.75;;;15.90;;
23898;SDS011;20544;50.018;20.010;2023-04-06T04:45:01;23.88;;;17.03;;
23898;SDS011;20544;50.018;20.010;2023-04-06T04:51:23;28.90;;;16.75;;
23898;SDS011;20544;50.018;20.010;2023-04-06T04:54:45;25.83;;;15.93;;
23898;SDS011;20544;50.018;20.010;2023-04-06T04:58:03;25.28;;;16.08;;
23898;SDS011;20544;50.018;20.010;2023-04-06T05:01:24;28.33;;;16.00;;
23898;SDS011;20544;50.018;20.010;2023-04-06T05:04:43;24.55;;;15.95;;
23898;SDS011;20544;50.018;20.010;2023-04-06T05:08:01;23.80;;;16.08;;
23898;SDS011;20544;50.018;20.010;2023-04-06T05:11:23;27.53;;;17.43;;
23898;SDS011;20544;50.018;20.010;2023-04-06T05:14:41;31.55;;;17.23;;
23898;SDS011;20544;50.018;20.010;2023-04-06T05:17:58;25.28;;;16.18;;
23898;SDS011;20544;50.018;20.010;2023-04-06T05:21:15;26.30;;;16.13;;
23898;SDS011;20544;50.018;20.010;2023-04-06T05:27:49;25.10;;;16.93;;
23898;SDS011;20544;50.018;20.010;2023-04-06T05:31:10;26.90;;;16.35;;
23898;SDS011;20544;50.018;20.010;2023-04-06T05:34:30;24.65;;;15.78;;
23898;SDS011;20544;50.018;20.010;2023-04-06T05:37:47;30.05;;;17.20;;
23898;SDS011;20544;50.018;20.010;2023-04-06T05:41:03;28.33;;;16.03;;
23898;SDS011;20544;50.018;20.010;2023-04-06T05:44:20;25.00;;;15.98;;
23898;SDS011;20544;50.018;20.010;2023-04-06T05:47:41;23.20;;;14.88;;
23898;SDS011;20544;50.018;20.010;2023-04-06T05:51:03;23.95;;;14.93;;
23898;SDS011;20544;50.018;20.010;2023-04-06T05:54:26;25.03;;;15.23;;
23898;SDS011;20544;50.018;20.010;2023-04-06T05:57:43;21.13;;;14.33;;
23898;SDS011;20544;50.018;20.010;2023-04-06T06:00:59;20.60;;;14.28;;
23898;SDS011;20544;50.018;20.010;2023-04-06T06:04:18;26.53;;;14.20;;
23898;SDS011;20544;50.018;20.010;2023-04-06T06:07:35;20.48;;;13.28;;
23898;SDS011;20544;50.018;20.010;2023-04-06T06:10:52;18.55;;;12.48;;
23898;SDS011;20544;50.018;20.010;2023-04-06T06:14:09;18.05;;;11.50;;
23898;SDS011;20544;50.018;20.010;2023-04-06T06:17:26;19.58;;;11.75;;
23898;SDS011;20544;50.018;20.010;2023-04-06T06:20:46;15.38;;;11.20;;
23898;SDS011;20544;50.018;20.010;2023-04-06T06:24:03;17.98;;;11.08;;
23898;SDS011;20544;50.018;20.010;2023-04-06T06:27:21;16.88;;;11.03;;
23898;SDS011;20544;50.018;20.010;2023-04-06T06:30:37;15.18;;;10.60;;
23898;SDS011;20544;50.018;20.010;2023-04-06T06:33:55;18.65;;;9.95;;
23898;SDS011;20544;50.018;20.010;2023-04-06T06:37:13;14.48;;;9.25;;
23898;SDS011;20544;50.018;20.010;2023-04-06T06:40:31;13.10;;;9.38;;
23898;SDS011;20544;50.018;20.010;2023-04-06T06:43:48;15.00;;;9.23;;
23898;SDS011;20544;50.018;20.010;2023-04-06T06:47:06;15.80;;;10.20;;
23898;SDS011;20544;50.018;20.010;2023-04-06T06:50:22;17.40;;;9.95;;
23898;SDS011;20544;50.018;20.010;2023-04-06T06:53:39;16.58;;;10.23;;
23898;SDS011;20544;50.018;20.010;2023-04-06T06:56:55;15.88;;;9.65;;
23898;SDS011;20544;50.018;20.010;2023-04-06T07:00:13;16.15;;;9.78;;
23898;SDS011;20544;50.018;20.010;2023-04-06T07:03:32;15.05;;;10.15;;
23898;SDS011;20544;50.018;20.010;2023-04-06T07:06:49;19.40;;;10.48;;
23898;SDS011;20544;50.018;20.010;2023-04-06T07:10:07;17.35;;;10.18;;
23898;SDS011;20544;50.018;20.010;2023-04-06T07:13:25;17.65;;;8.98;;
23898;SDS011;20544;50.018;20.010;2023-04-06T07:16:41;12.68;;;8.53;;
23898;SDS011;20544;50.018;20.010;2023-04-06T07:19:59;12.60;;;7.60;;
23898;SDS011;20544;50.018;20.010;2023-04-06T07:23:16;11.18;;;7.70;;
23898;SDS011;20544;50.018;20.010;2023-04-06T07:26:33;11.10;;;7.20;;
23898;SDS011;20544;50.018;20.010;2023-04-06T07:29:49;10.65;;;7.00;;
23898;SDS011;20544;50.018;20.010;2023-04-06T07:33:06;9.93;;;7.28;;
23898;SDS011;20544;50.018;20.010;2023-04-06T07:36:23;9.15;;;6.45;;
23898;SDS011;20544;50.018;20.010;2023-04-06T07:39:40;11.23;;;6.68;;
23898;SDS011;20544;50.018;20.010;2023-04-06T07:42:57;11.58;;;7.23;;
23898;SDS011;20544;50.018;20.010;2023-04-06T07:46:16;12.78;;;7.10;;
23898;SDS011;20544;50.018;20.010;2023-04-06T07:49:33;13.83;;;7.25;;
23898;SDS011;20544;50.018;20.010;2023-04-06T07:52:50;11.48;;;7.48;;
23898;SDS011;20544;50.018;20.010;2023-04-06T07:56:07;10.23;;;6.40;;
23898;SDS011;20544;50.018;20.010;2023-04-06T07:59:24;9.60;;;6.50;;
23898;SDS011;20544;50.018;20.010;2023-04-06T08:02:53;10.50;;;7.45;;
23898;SDS011;20544;50.018;20.010;2023-04-06T08:06:10;12.08;;;7.28;;
23898;SDS011;20544;50.018;20.010;2023-04-06T08:09:27;12.65;;;6.98;;
23898;SDS011;20544;50.018;20.010;2023-04-06T08:12:43;8.53;;;6.73;;
23898;SDS011;20544;50.018;20.010;2023-04-06T08:16:00;174.40;;;99.65;;
23898;SDS011;20544;50.018;20.010;2023-04-06T08:19:18;33.50;;;20.10;;
23898;SDS011;20544;50.018;20.010;2023-04-06T08:22:36;16.43;;;10.68;;
23898;SDS011;20544;50.018;20.010;2023-04-06T08:25:52;12.20;;;7.78;;
23898;SDS011;20544;50.018;20.010;2023-04-06T08:29:09;10.90;;;7.15;;
23898;SDS011;20544;50.018;20.010;2023-04-06T08:32:26;11.80;;;6.50;;
23898;SDS011;20544;50.018;20.010;2023-04-06T08:35:42;8.80;;;6.30;;
23898;SDS011;20544;50.018;20.010;2023-04-06T08:39:00;8.33;;;6.30;;
23898;SDS011;20544;50.018;20.010;2023-04-06T08:42:18;8.68;;;6.25;;
23898;SDS011;20544;50.018;20.010;2023-04-06T08:45:37;8.65;;;5.75;;
23898;SDS011;20544;50.018;20.010;2023-04-06T08:48:55;10.15;;;6.48;;
23898;SDS011;20544;50.018;20.010;2023-04-06T08:55:29;7.78;;;6.03;;
23898;SDS011;20544;50.018;20.010;2023-04-06T08:58:47;7.85;;;6.00;;
23898;SDS011;20544;50.018;20.010;2023-04-06T09:02:04;9.73;;;6.10;;
23898;SDS011;20544;50.018;20.010;2023-04-06T09:05:24;7.75;;;5.40;;
23898;SDS011;20544;50.018;20.010;2023-04-06T09:08:41;8.30;;;5.65;;
23898;SDS011;20544;50.018;20.010;2023-04-06T09:11:58;8.25;;;5.70;;
23898;SDS011;20544;50.018;20.010;2023-04-06T09:15:21;7.50;;;5.68;;
23898;SDS011;20544;50.018;20.010;2023-04-06T09:21:41;8.68;;;5.30;;
23898;SDS011;20544;50.018;20.010;2023-04-06T09:24:58;8.38;;;5.80;;
23898;SDS011;20544;50.018;20.010;2023-04-06T09:28:15;6.53;;;4.83;;
23898;SDS011;20544;50.018;20.010;2023-04-06T09:31:32;25.68;;;17.00;;
23898;SDS011;20544;50.018;20.010;2023-04-06T09:34:49;27.95;;;16.73;;
23898;SDS011;20544;50.018;20.010;2023-04-06T09:38:11;11.45;;;7.70;;
23898;SDS011;20544;50.018;20.010;2023-04-06T09:41:28;8.68;;;5.88;;
23898;SDS011;20544;50.018;20.010;2023-04-06T09:44:46;10.20;;;6.15;;
23898;SDS011;20544;50.018;20.010;2023-04-06T09:48:03;11.63;;;6.20;;
23898;SDS011;20544;50.018;20.010;2023-04-06T09:51:20;10.63;;;6.25;;
23898;SDS011;20544;50.018;20.010;2023-04-06T09:54:40;8.23;;;6.30;;
23898;SDS011;20544;50.018;20.010;2023-04-06T09:58:03;9.70;;;6.08;;
23898;SDS011;20544;50.018;20.010;2023-04-06T10:01:27;10.40;;;6.35;;
23898;SDS011;20544;50.018;20.010;2023-04-06T10:04:48;12.05;;;6.85;;
23898;SDS011;20544;50.018;20.010;2023-04-06T10:08:11;10.55;;;6.03;;
23898;SDS011;20544;50.018;20.010;2023-04-06T10:11:29;10.48;;;6.83;;
23898;SDS011;20544;50.018;20.010;2023-04-06T10:14:47;11.25;;;6.18;;
23898;SDS011;20544;50.018;20.010;2023-04-06T10:18:05;12.23;;;7.20;;
23898;SDS011;20544;50.018;20.010;2023-04-06T10:24:38;11.10;;;7.05;;
23898;SDS011;20544;50.018;20.010;2023-04-06T10:28:00;11.55;;;7.25;;
23898;SDS011;20544;50.018;20.010;2023-04-06T10:31:25;11.13;;;7.65;;
23898;SDS011;20544;50.018;20.010;2023-04-06T10:34:42;10.68;;;7.23;;
23898;SDS011;20544;50.018;20.010;2023-04-06T10:38:02;12.90;;;7.88;;
23898;SDS011;20544;50.018;20.010;2023-04-06T10:41:21;11.13;;;8.15;;
23898;SDS011;20544;50.018;20.010;2023-04-06T10:44:41;12.75;;;9.30;;
23898;SDS011;20544;50.018;20.010;2023-04-06T10:47:58;12.15;;;8.73;;
23898;SDS011;20544;50.018;20.010;2023-04-06T10:51:17;13.30;;;9.25;;
23898;SDS011;20544;50.018;20.010;2023-04-06T10:54:41;12.18;;;8.95;;
23898;SDS011;20544;50.018;20.010;2023-04-06T10:57:58;13.38;;;9.15;;
23898;SDS011;20544;50.018;20.010;2023-04-06T11:01:17;14.38;;;9.20;;
23898;SDS011;20544;50.018;20.010;2023-04-06T11:04:36;76.23;;;41.23;;
23898;SDS011;20544;50.018;20.010;2023-04-06T11:07:53;24.18;;;13.75;;
23898;SDS011;20544;50.018;20.010;2023-04-06T11:11:10;14.93;;;10.08;;
23898;SDS011;20544;50.018;20.010;2023-04-06T11:14:29;14.88;;;9.45;;
23898;SDS011;20544;50.018;20.010;2023-04-06T11:17:46;13.60;;;8.83;;
23898;SDS011;20544;50.018;20.010;2023-04-06T11:21:04;13.40;;;8.53;;
23898;SDS011;20544;50.018;20.010;2023-04-06T11:24:21;13.23;;;8.90;;
23898;SDS011;20544;50.018;20.010;2023-04-06T11:27:39;14.30;;;9.83;;
23898;SDS011;20544;50.018;20.010;2023-04-06T11:30:56;13.33;;;9.45;;
23898;SDS011;20544;50.018;20.010;2023-04-06T11:34:16;11.95;;;8.20;;
23898;SDS011;20544;50.018;20.010;2023-04-06T11:37:33;12.98;;;8.63;;
23898;SDS011;20544;50.018;20.010;2023-04-06T11:40:53;12.43;;;8.28;;
23898;SDS011;20544;50.018;20.010;2023-04-06T11:44:10;14.33;;;8.90;;
23898;SDS011;20544;50.018;20.010;2023-04-06T11:47:33;13.45;;;7.85;;
23898;SDS011;20544;50.018;20.010;2023-04-06T11:50:54;11.20;;;8.48;;
23898;SDS011;20544;50.018;20.010;2023-04-06T11:54:13;13.53;;;8.53;;
23898;SDS011;20544;50.018;20.010;2023-04-06T11:57:30;11.03;;;8.73;;
23898;SDS011;20544;50.018;20.010;2023-04-06T12:00:48;15.10;;;9.68;;
23898;SDS011;20544;50.018;20.010;2023-04-06T12:04:05;13.48;;;9.53;;
23898;SDS011;20544;50.018;20.010;2023-04-06T12:07:21;13.25;;;9.33;;
23898;SDS011;20544;50.018;20.010;2023-04-06T12:10:38;12.85;;;8.68;;
23898;SDS011;20544;50.018;20.010;2023-04-06T12:13:55;47.30;;;28.40;;
23898;SDS011;20544;50.018;20.010;2023-04-06T12:17:12;13.48;;;9.60;;
23898;SDS011;20544;50.018;20.010;2023-04-06T12:20:29;14.43;;;9.30;;
23898;SDS011;20544;50.018;20.010;2023-04-06T12:23:45;13.18;;;8.63;;
23898;SDS011;20544;50.018;20.010;2023-04-06T12:27:03;11.58;;;8.85;;
23898;SDS011;20544;50.018;20.010;2023-04-06T12:30:21;12.18;;;9.20;;
23898;SDS011;20544;50.018;20.010;2023-04-06T12:33:39;12.63;;;10.00;;
23898;SDS011;20544;50.018;20.010;2023-04-06T12:36:58;13.30;;;10.05;;
23898;SDS011;20544;50.018;20.010;2023-04-06T12:40:15;13.55;;;10.28;;
23898;SDS011;20544;50.018;20.010;2023-04-06T12:43:32;14.63;;;10.25;;
23898;SDS011;20544;50.018;20.010;2023-04-06T12:46:51;12.23;;;9.93;;
23898;SDS011;20544;50.018;20.010;2023-04-06T12:50:08;14.18;;;10.43;;
23898;SDS011;20544;50.018;20.010;2023-04-06T12:56:42;13.98;;;10.70;;
23898;SDS011;20544;50.018;20.010;2023-04-06T12:59:59;15.30;;;9.78;;
23898;SDS011;20544;50.018;20.010;2023-04-06T13:03:17;15.95;;;10.28;;
23898;SDS011;20544;50.018;20.010;2023-04-06T13:06:34;18.63;;;10.85;;
23898;SDS011;20544;50.018;20.010;2023-04-06T13:09:51;13.75;;;10.58;;
23898;SDS011;20544;50.018;20.010;2023-04-06T13:13:07;15.38;;;11.00;;
23898;SDS011;20544;50.018;20.010;2023-04-06T13:16:24;42.73;;;26.98;;
23898;SDS011;20544;50.018;20.010;2023-04-06T13:19:42;32.38;;;20.10;;
23898;SDS011;20544;50.018;20.010;2023-04-06T13:22:58;19.00;;;13.23;;
23898;SDS011;20544;50.018;20.010;2023-04-06T13:26:15;16.23;;;11.90;;
23898;SDS011;20544;50.018;20.010;2023-04-06T13:29:32;17.00;;;11.78;;
23898;SDS011;20544;50.018;20.010;2023-04-06T13:32:49;15.48;;;11.78;;
23898;SDS011;20544;50.018;20.010;2023-04-06T13:36:06;17.05;;;10.98;;
23898;SDS011;20544;50.018;20.010;2023-04-06T13:39:23;16.68;;;11.80;;
23898;SDS011;20544;50.018;20.010;2023-04-06T13:42:40;17.23;;;12.58;;
23898;SDS011;20544;50.018;20.010;2023-04-06T13:45:57;19.48;;;11.70;;
23898;SDS011;20544;50.018;20.010;2023-04-06T13:49:14;17.88;;;12.50;;
23898;SDS011;20544;50.018;20.010;2023-04-06T13:52:31;17.50;;;13.08;;
23898;SDS011;20544;50.018;20.010;2023-04-06T13:55:55;16.78;;;12.40;;
23898;SDS011;20544;50.018;20.010;2023-04-06T13:59:12;15.88;;;11.90;;
23898;SDS011;20544;50.018;20.010;2023-04-06T14:02:28;18.98;;;11.93;;
23898;SDS011;20544;50.018;20.010;2023-04-06T14:05:46;18.83;;;12.88;;
23898;SDS011;20544;50.018;20.010;2023-04-06T14:09:04;22.70;;;13.98;;
23898;SDS011;20544;50.018;20.010;2023-04-06T14:12:21;18.40;;;12.28;;
23898;SDS011;20544;50.018;20.010;2023-04-06T14:15:38;16.90;;;13.15;;
23898;SDS011;20544;50.018;20.010;2023-04-06T14:18:57;16.30;;;12.50;;
23898;SDS011;20544;50.018;20.010;2023-04-06T14:22:14;18.98;;;13.05;;
23898;SDS011;20544;50.018;20.010;2023-04-06T14:25:31;20.60;;;14.08;;
23898;SDS011;20544;50.018;20.010;2023-04-06T14:28:48;17.60;;;12.70;;
23898;SDS011;20544;50.018;20.010;2023-04-06T14:32:04;19.23;;;13.93;;
23898;SDS011;20544;50.018;20.010;2023-04-06T14:35:21;21.77;;;15.10;;
23898;SDS011;20544;50.018;20.010;2023-04-06T14:38:39;19.88;;;14.13;;
23898;SDS011;20544;50.018;20.010;2023-04-06T14:41:55;19.70;;;14.90;;
23898;SDS011;20544;50.018;20.010;2023-04-06T14:45:12;23.13;;;15.08;;
23898;SDS011;20544;50.018;20.010;2023-04-06T14:48:29;22.95;;;15.83;;
23898;SDS011;20544;50.018;20.010;2023-04-06T14:51:46;19.35;;;15.40;;
23898;SDS011;20544;50.018;20.010;2023-04-06T14:55:03;22.13;;;16.03;;
23898;SDS011;20544;50.018;20.010;2023-04-06T14:58:21;21.65;;;16.63;;
23898;SDS011;20544;50.018;20.010;2023-04-06T15:01:39;20.60;;;15.93;;
23898;SDS011;20544;50.018;20.010;2023-04-06T15:05:01;75.03;;;42.70;;
23898;SDS011;20544;50.018;20.010;2023-04-06T15:08:19;36.25;;;23.45;;
23898;SDS011;20544;50.018;20.010;2023-04-06T15:11:36;22.65;;;16.73;;
23898;SDS011;20544;50.018;20.010;2023-04-06T15:14:52;21.75;;;16.50;;
23898;SDS011;20544;50.018;20.010;2023-04-06T15:18:08;21.65;;;16.85;;
23898;SDS011;20544;50.018;20.010;2023-04-06T15:21:26;22.70;;;16.80;;
23898;SDS011;20544;50.018;20.010;2023-04-06T15:24:42;23.05;;;15.80;;
23898;SDS011;20544;50.018;20.010;2023-04-06T15:27:59;18.98;;;14.88;;
23898;SDS011;20544;50.018;20.010;2023-04-06T15:31:19;21.97;;;16.27;;
23898;SDS011;20544;50.018;20.010;2023-04-06T15:34:37;22.88;;;16.65;;
23898;SDS011;20544;50.018;20.010;2023-04-06T15:37:53;25.80;;;17.55;;
23898;SDS011;20544;50.018;20.010;2023-04-06T15:41:10;25.15;;;17.35;;
23898;SDS011;20544;50.018;20.010;2023-04-06T15:44:27;23.90;;;17.28;;
23898;SDS011;20544;50.018;20.010;2023-04-06T15:47:44;23.15;;;17.53;;
23898;SDS011;20544;50.018;20.010;2023-04-06T15:51:01;21.85;;;17.35;;
23898;SDS011;20544;50.018;20.010;2023-04-06T15:54:17;22.70;;;17.00;;
23898;SDS011;20544;50.018;20.010;2023-04-06T15:57:34;21.73;;;17.55;;
23898;SDS011;20544;50.018;20.010;2023-04-06T16:00:51;22.20;;;16.65;;
23898;SDS011;20544;50.018;20.010;2023-04-06T16:04:08;23.90;;;18.15;;
23898;SDS011;20544;50.018;20.010;2023-04-06T16:07:25;21.83;;;17.75;;
23898;SDS011;20544;50.018;20.010;2023-04-06T16:10:41;24.20;;;20.15;;
23898;SDS011;20544;50.018;20.010;2023-04-06T16:13:58;26.98;;;21.33;;
23898;SDS011;20544;50.018;20.010;2023-04-06T16:17:15;26.00;;;20.08;;
23898;SDS011;20544;50.018;20.010;2023-04-06T16:20:33;31.20;;;22.50;;
23898;SDS011;20544;50.018;20.010;2023-04-06T16:23:50;34.73;;;22.88;;
23898;SDS011;20544;50.018;20.010;2023-04-06T16:27:07;38.13;;;23.90;;
23898;SDS011;20544;50.018;20.010;2023-04-06T16:30:24;38.40;;;24.18;;
23898;SDS011;20544;50.018;20.010;2023-04-06T16:33:40;42.73;;;27.55;;
23898;SDS011;20544;50.018;20.010;2023-04-06T16:36:56;40.50;;;26.15;;
23898;SDS011;20544;50.018;20.010;2023-04-06T16:40:13;37.88;;;24.38;;
23898;SDS011;20544;50.018;20.010;2023-04-06T16:43:29;43.68;;;27.43;;
23898;SDS011;20544;50.018;20.010;2023-04-06T16:46:46;41.63;;;26.95;;
23898;SDS011;20544;50.018;20.010;2023-04-06T16:50:03;40.50;;;27.20;;
23898;SDS011;20544;50.018;20.010;2023-04-06T16:53:21;41.25;;;28.18;;
23898;SDS011;20544;50.018;20.010;2023-04-06T16:56:38;41.93;;;27.45;;
23898;SDS011;20544;50.018;20.010;2023-04-06T16:59:54;45.68;;;29.58;;
23898;SDS011;20544;50.018;20.010;2023-04-06T17:03:11;38.13;;;28.35;;
23898;SDS011;20544;50.018;20.010;2023-04-06T17:09:44;38.08;;;27.45;;
23898;SDS011;20544;50.018;20.010;2023-04-06T17:13:00;39.58;;;28.43;;
23898;SDS011;20544;50.018;20.010;2023-04-06T17:16:16;36.30;;;27.10;;
23898;SDS011;20544;50.018;20.010;2023-04-06T17:19:34;37.93;;;27.78;;
23898;SDS011;20544;50.018;20.010;2023-04-06T17:22:51;35.80;;;26.78;;
23898;SDS011;20544;50.018;20.010;2023-04-06T17:26:08;35.13;;;26.68;;
23898;SDS011;20544;50.018;20.010;2023-04-06T17:29:25;36.90;;;27.75;;
23898;SDS011;20544;50.018;20.010;2023-04-06T17:32:41;40.90;;;29.03;;
23898;SDS011;20544;50.018;20.010;2023-04-06T17:35:58;39.30;;;28.83;;
23898;SDS011;20544;50.018;20.010;2023-04-06T17:39:18;33.95;;;27.88;;
23898;SDS011;20544;50.018;20.010;2023-04-06T17:42:35;35.90;;;28.70;;
23898;SDS011;20544;50.018;20.010;2023-04-06T17:45:51;37.58;;;27.28;;
23898;SDS011;20544;50.018;20.010;2023-04-06T17:49:08;34.68;;;27.93;;
23898;SDS011;20544;50.018;20.010;2023-04-06T17:52:25;34.40;;;27.00;;
23898;SDS011;20544;50.018;20.010;2023-04-06T17:55:42;36.00;;;27.85;;
23898;SDS011;20544;50.018;20.010;2023-04-06T17:58:59;33.03;;;28.18;;
23898;SDS011;20544;50.018;20.010;2023-04-06T18:02:17;35.25;;;28.33;;
23898;SDS011;20544;50.018;20.010;2023-04-06T18:05:37;36.73;;;29.20;;
23898;SDS011;20544;50.018;20.010;2023-04-06T18:08:54;35.50;;;28.20;;
23898;SDS011;20544;50.018;20.010;2023-04-06T18:12:12;37.78;;;30.13;;
23898;SDS011;20544;50.018;20.010;2023-04-06T18:15:28;37.85;;;30.53;;
23898;SDS011;20544;50.018;20.010;2023-04-06T18:18:47;38.90;;;29.95;;
23898;SDS011;20544;50.018;20.010;2023-04-06T18:22:04;37.68;;;29.83;;
23898;SDS011;20544;50.018;20.010;2023-04-06T18:25:22;34.63;;;28.25;;
23898;SDS011;20544;50.018;20.010;2023-04-06T18:28:42;42.33;;;32.03;;
23898;SDS011;20544;50.018;20.010;2023-04-06T18:32:00;38.03;;;29.70;;
23898;SDS011;20544;50.018;20.010;2023-04-06T18:35:17;37.53;;;28.75;;
23898;SDS011;20544;50.018;20.010;2023-04-06T18:38:33;39.38;;;29.53;;
23898;SDS011;20544;50.018;20.010;2023-04-06T18:41:52;39.08;;;29.55;;
23898;SDS011;20544;50.018;20.010;2023-04-06T18:45:10;39.15;;;29.85;;
23898;SDS011;20544;50.018;20.010;2023-04-06T18:48:31;39.08;;;29.75;;
23898;SDS011;20544;50.018;20.010;2023-04-06T18:51:48;38.50;;;30.40;;
23898;SDS011;20544;50.018;20.010;2023-04-06T18:55:07;39.33;;;30.63;;
23898;SDS011;20544;50.018;20.010;2023-04-06T18:58:25;38.93;;;30.85;;
23898;SDS011;20544;50.018;20.010;2023-04-06T19:01:42;43.75;;;31.95;;
23898;SDS011;20544;50.018;20.010;2023-04-06T19:08:16;38.58;;;30.08;;
23898;SDS011;20544;50.018;20.010;2023-04-06T19:11:32;42.18;;;30.28;;
23898;SDS011;20544;50.018;20.010;2023-04-06T19:14:49;40.33;;;31.38;;
23898;SDS011;20544;50.018;20.010;2023-04-06T19:18:07;87.23;;;64.18;;
23898;SDS011;20544;50.018;20.010;2023-04-06T19:21:24;54.30;;;38.63;;
23898;SDS011;20544;50.018;20.010;2023-04-06T19:24:40;44.70;;;32.20;;
23898;SDS011;20544;50.018;20.010;2023-04-06T19:28:07;44.18;;;31.95;;
23898;SDS011;20544;50.018;20.010;2023-04-06T19:31:33;42.45;;;32.05;;
23898;SDS011;20544;50.018;20.010;2023-04-06T19:34:50;41.05;;;31.25;;
23898;SDS011;20544;50.018;20.010;2023-04-06T19:38:09;40.55;;;32.03;;
23898;SDS011;20544;50.018;20.010;2023-04-06T19:41:27;40.05;;;32.38;;
23898;SDS011;20544;50.018;20.010;2023-04-06T19:44:44;43.93;;;35.03;;
23898;SDS011;20544;50.018;20.010;2023-04-06T19:48:03;48.40;;;36.65;;